Lexington, KY (40513)

3:13 PM EDT on July 06, 2015 (GMT -0400)
Beaumont | | Change Station
CLOSE
Current Station
Personal Weather Station
Location: Lexington, KY
Elevation: 976 ft
Nearby Weather Stations

Elev 976 ft 38.02 °N, 84.56 °W | Updated 4 seconds ago

Scattered Clouds
Scattered Clouds
83.3 °F
Feels Like 85 °F
N
4.6
Wind Variable Wind from WNW
Gusts 4.6 mph

Today
High -- | Low -- °F
--% Chance of Precip.
Yesterday
High -- | Low -- °F
Precip. -- in
6:21 AM 9:04 PM
Waning Gibbous, 73% visible
Pressure 30.08 in
Visibility 8.0 miles
Clouds Scattered Clouds 3600 ft
Scattered Clouds 6000 ft
Heat Index 85 °F
Dew Point 64 °F
Humidity 52%
Rainfall 0.00 in
Snow Depth Not available.
UV 9 out of 12
Pollen 3.70 out of 12
Air Quality Not available.
Flu Activity Not available.
METAR KLEX 061854Z 21005KT 8SM SCT036 SCT060 28/20 A3010 RMK AO2 SLP185 T02830200

More Conditions Fewer Conditions

Pressure 30.08 in
Visibility 8.0 miles
Clouds Scattered Clouds 3600 ft
Scattered Clouds 6000 ft
Heat Index 85 °F
Dew Point 64 °F
Humidity 52%
Rainfall 0.00 in
Snow Depth Not available.
UV 9 out of 12
Pollen 3.70 out of 12
Air Quality Not available.
Flu Activity Not available.
METAR KLEX 061854Z 21005KT 8SM SCT036 SCT060 28/20 A3010 RMK AO2 SLP185 T02830200

More Conditions Fewer Conditions

10-Day Weather Forecast

×

Almanac

Astronomy

Jul. 06, 2015 Rise Set
Actual Time
Civil Twilight
Nautical Twilight
Astronomical Twilight
Moon
Length of Visible Light
Length of Day
Tomorrow will be .
, % of the Moon is Illuminated

Today's Extremes

State Highs State Lows

Community

WunderPhotos

Upload Photos

1,835,616 photos uploaded!

WunderBlogs® & News

Nearby

Air Quality

  Air Quality AQ Index Pollutant
Not available.

Snow Depth

Station Depth Elevation

Earthquake Activity

City Distance Mag. Time & Date
Minimum magnitude displayed is 2.5.

Coastal Water Temperatures

Place Temperature

Stations

Nearby Weather Stations

Station Location Temp. Windchill Dew Point Humidity Wind Precip. Elev Updated Type